createdAt,value
2018-12-19T00:01:23.910Z,13.43
2018-12-19T00:03:53.625Z,13.40
2018-12-19T00:06:23.101Z,14.70
2018-12-19T00:08:50.600Z,11.60
2018-12-19T00:11:18.074Z,12.20
2018-12-19T00:13:45.560Z,11.70
2018-12-19T00:16:13.304Z,14.10
2018-12-19T00:18:40.801Z,12.67
2018-12-19T00:21:08.334Z,15.63
2018-12-19T00:23:35.795Z,13.50
2018-12-19T00:26:03.665Z,13.20
2018-12-19T00:28:33.315Z,15.13
2018-12-19T00:31:03.051Z,12.47
2018-12-19T00:33:32.545Z,13.27
2018-12-19T00:36:02.313Z,12.50
2018-12-19T00:38:29.888Z,14.50
2018-12-19T00:40:57.409Z,14.40
2018-12-19T00:43:24.938Z,14.27
2018-12-19T00:45:52.470Z,12.50
2018-12-19T00:48:20.065Z,12.03
2018-12-19T00:50:47.576Z,17.27
2018-12-19T00:53:15.075Z,13.30
2018-12-19T00:55:42.690Z,14.23
2018-12-19T00:58:10.180Z,13.50
2018-12-19T01:00:37.693Z,14.07
2018-12-19T01:03:06.316Z,12.10
2018-12-19T01:05:33.837Z,13.10
2018-12-19T01:08:01.416Z,12.50
2018-12-19T01:10:29.224Z,14.60
2018-12-19T01:12:56.756Z,14.27
2018-12-19T01:15:24.505Z,14.90
2018-12-19T01:17:52.265Z,11.47
2018-12-19T01:20:19.775Z,14.77
2018-12-19T01:22:47.438Z,13.73
2018-12-19T01:25:14.954Z,11.40
2018-12-19T01:27:42.750Z,13.57
2018-12-19T01:30:10.268Z,13.60
2018-12-19T01:32:37.930Z,16.13
2018-12-19T01:35:05.568Z,12.20
2018-12-19T01:37:34.969Z,12.93
2018-12-19T01:40:03.110Z,14.17
2018-12-19T01:42:30.643Z,12.63
2018-12-19T01:44:58.262Z,13.47
2018-12-19T01:47:25.822Z,11.87
2018-12-19T01:49:53.296Z,13.20
2018-12-19T01:52:21.157Z,11.00
2018-12-19T01:54:51.533Z,14.30
2018-12-19T01:57:19.306Z,11.90
2018-12-19T01:59:46.834Z,12.70
2018-12-19T02:02:14.477Z,16.47
2018-12-19T02:04:42.151Z,12.80
2018-12-19T02:07:09.673Z,12.17
2018-12-19T02:09:37.171Z,13.33
2018-12-19T02:12:04.635Z,11.23
2018-12-19T02:14:32.181Z,12.27
2018-12-19T02:16:59.721Z,18.10
2018-12-19T02:19:27.565Z,13.03
2018-12-19T02:21:55.131Z,10.87
2018-12-19T02:24:22.765Z,11.97
2018-12-19T02:26:50.431Z,12.27
2018-12-19T02:29:22.046Z,11.50
2018-12-19T02:31:49.719Z,11.80
2018-12-19T02:34:17.928Z,11.97
2018-12-19T02:36:45.492Z,12.47
2018-12-19T02:39:13.287Z,13.67
2018-12-19T02:41:40.805Z,14.10
2018-12-19T02:44:08.343Z,14.60
2018-12-19T02:46:35.817Z,11.50
2018-12-19T02:49:03.445Z,11.50
2018-12-19T02:51:30.977Z,12.97
2018-12-19T02:53:58.459Z,10.20
2018-12-19T02:56:26.073Z,12.77
2018-12-19T02:58:54.788Z,11.90
2018-12-19T03:02:06.570Z,12.00
2018-12-19T03:04:34.073Z,10.57
2018-12-19T03:07:01.630Z,14.77
2018-12-19T03:09:29.237Z,12.90
2018-12-19T03:11:56.723Z,10.73
2018-12-19T03:14:25.590Z,10.10
2018-12-19T03:16:53.073Z,11.17
2018-12-19T03:19:20.533Z,12.20
2018-12-19T03:21:48.061Z,11.07
2018-12-19T03:24:15.614Z,12.03
2018-12-19T03:26:43.185Z,13.07
2018-12-19T03:29:11.758Z,10.57
2018-12-19T03:31:39.400Z,10.17
2018-12-19T03:34:06.875Z,10.33
2018-12-19T03:36:34.362Z,12.87
2018-12-19T03:39:02.793Z,10.07
2018-12-19T03:41:32.473Z,11.40
2018-12-19T03:43:59.960Z,11.47
2018-12-19T03:46:28.219Z,11.53
2018-12-19T03:48:56.932Z,11.63
2018-12-19T03:51:24.535Z,12.50
2018-12-19T03:53:52.417Z,9.87
2018-12-19T03:56:19.958Z,10.97
2018-12-19T03:58:47.494Z,9.90
2018-12-19T04:01:15.185Z,9.40
2018-12-19T04:03:42.697Z,11.57
2018-12-19T04:06:10.171Z,13.20
2018-12-19T04:08:37.689Z,9.10
2018-12-19T04:11:05.233Z,8.50
2018-12-19T04:13:32.838Z,10.50
2018-12-19T04:16:00.336Z,9.53
2018-12-19T04:18:28.954Z,10.10
2018-12-19T04:20:56.493Z,10.03
2018-12-19T04:23:24.061Z,9.33
2018-12-19T04:25:51.697Z,12.13
2018-12-19T04:28:19.218Z,10.50
2018-12-19T04:30:46.695Z,8.80
2018-12-19T04:33:14.302Z,9.30
2018-12-19T04:35:42.079Z,10.03
2018-12-19T04:38:09.595Z,10.53
2018-12-19T04:40:37.118Z,9.00
2018-12-19T04:43:09.494Z,7.60
2018-12-19T04:45:36.981Z,8.40
2018-12-19T04:48:05.614Z,8.43
2018-12-19T04:50:33.338Z,9.00
2018-12-19T04:53:01.057Z,12.70
2018-12-19T04:55:28.701Z,7.40
2018-12-19T04:57:56.317Z,8.40
2018-12-19T05:00:23.873Z,9.77
2018-12-19T05:02:51.391Z,9.17
2018-12-19T05:05:18.953Z,8.47
2018-12-19T05:07:46.804Z,12.30
2018-12-19T05:10:14.668Z,7.73
2018-12-19T05:12:42.204Z,11.90
2018-12-19T05:15:09.737Z,11.63
2018-12-19T05:17:37.209Z,11.40
2018-12-19T05:20:07.009Z,9.37
2018-12-19T05:22:34.485Z,8.97
2018-12-19T05:25:02.018Z,9.23
2018-12-19T05:27:29.642Z,10.20
2018-12-19T05:29:57.190Z,9.10
2018-12-19T05:32:24.734Z,9.90
2018-12-19T05:34:52.227Z,10.73
2018-12-19T05:37:19.726Z,12.10
2018-12-19T05:39:47.345Z,8.77
2018-12-19T05:42:15.743Z,9.93
2018-12-19T05:44:43.397Z,11.77
2018-12-19T05:47:11.386Z,9.30
2018-12-19T05:49:39.185Z,10.43
2018-12-19T05:52:06.738Z,11.90
2018-12-19T05:54:41.124Z,11.70
2018-12-19T05:57:10.773Z,10.03
2018-12-19T05:59:39.835Z,12.30
2018-12-19T06:02:07.762Z,11.13
2018-12-19T06:04:37.317Z,10.20
2018-12-19T06:07:04.825Z,9.97
2018-12-19T06:09:32.338Z,10.17
2018-12-19T06:11:59.967Z,10.30
2018-12-19T06:14:27.625Z,8.60
2018-12-19T06:16:55.117Z,10.83
2018-12-19T06:19:22.733Z,10.97
2018-12-19T06:21:50.369Z,11.47
2018-12-19T06:24:17.838Z,10.57
2018-12-19T06:26:45.410Z,11.03
2018-12-19T06:29:12.935Z,10.80
2018-12-19T06:31:40.713Z,11.13
2018-12-19T06:34:08.273Z,11.50
2018-12-19T06:36:35.767Z,10.20
2018-12-19T06:39:06.524Z,11.50
2018-12-19T06:41:34.321Z,10.20
2018-12-19T06:44:01.847Z,9.80
2018-12-19T06:46:29.370Z,12.10
2018-12-19T06:48:56.873Z,13.30
2018-12-19T06:51:24.359Z,10.60
2018-12-19T06:53:51.815Z,11.37
2018-12-19T06:56:19.609Z,13.67
2018-12-19T06:58:47.106Z,11.87
2018-12-19T07:01:15.188Z,16.43
2018-12-19T07:03:42.889Z,14.37
2018-12-19T07:06:10.393Z,13.07
2018-12-19T07:08:37.989Z,12.23
2018-12-19T07:11:05.544Z,13.17
2018-12-19T07:13:33.025Z,11.83
2018-12-19T07:16:00.633Z,13.47
2018-12-19T07:18:30.215Z,12.77
2018-12-19T07:20:58.084Z,11.30
2018-12-19T07:23:25.696Z,13.93
2018-12-19T07:25:53.294Z,11.70
2018-12-19T07:28:20.769Z,14.20
2018-12-19T07:30:48.438Z,12.90
2018-12-19T07:33:15.963Z,14.63
2018-12-19T07:35:43.460Z,13.10
2018-12-19T07:38:11.047Z,15.07
2018-12-19T07:40:38.658Z,15.07
2018-12-19T07:43:07.646Z,14.40
2018-12-19T07:45:35.356Z,14.27
2018-12-19T07:48:02.966Z,15.20
2018-12-19T07:50:30.647Z,15.60
2018-12-19T07:52:58.254Z,15.10
2018-12-19T07:55:27.439Z,16.00
2018-12-19T07:57:54.929Z,15.60
2018-12-19T08:00:27.481Z,15.40
2018-12-19T08:02:51.863Z,18.63
2018-12-19T08:05:25.946Z,15.90
2018-12-19T08:07:49.469Z,12.40
2018-12-19T08:10:17.100Z,14.50
2018-12-19T08:12:44.938Z,15.53
2018-12-19T08:15:12.443Z,17.13
2018-12-19T08:17:40.261Z,16.70
2018-12-19T08:20:07.841Z,16.50
2018-12-19T08:22:35.344Z,18.17
2018-12-19T08:25:03.077Z,14.93
2018-12-19T08:27:30.777Z,16.83
2018-12-19T08:29:58.446Z,18.60
2018-12-19T08:32:25.962Z,17.70
2018-12-19T08:34:53.405Z,17.93
2018-12-19T08:37:20.920Z,16.00
2018-12-19T08:39:48.385Z,20.90
2018-12-19T08:42:16.066Z,17.67
2018-12-19T08:44:43.617Z,17.40
2018-12-19T08:47:11.069Z,18.37
2018-12-19T08:49:39.204Z,17.63
2018-12-19T08:52:06.761Z,18.67
2018-12-19T08:54:34.856Z,17.13
2018-12-19T08:57:02.699Z,16.33
2018-12-19T08:59:30.513Z,18.33
2018-12-19T09:01:58.081Z,17.33
2018-12-19T09:04:25.990Z,18.37
2018-12-19T09:06:53.715Z,21.63
2018-12-19T09:09:21.258Z,20.50
2018-12-19T09:11:50.094Z,20.83
2018-12-19T09:14:17.813Z,19.63
2018-12-19T09:16:46.311Z,18.37
2018-12-19T09:19:14.052Z,20.07
2018-12-19T09:21:41.537Z,20.47
2018-12-19T09:24:09.036Z,20.57
2018-12-19T09:26:36.564Z,16.23
2018-12-19T09:29:04.050Z,18.40
2018-12-19T09:31:31.775Z,19.63
2018-12-19T09:33:59.280Z,17.70
2018-12-19T09:36:26.727Z,19.90
2018-12-19T09:38:54.234Z,21.83
2018-12-19T09:41:21.771Z,19.53
2018-12-19T09:43:49.234Z,21.60
2018-12-19T09:46:16.733Z,19.47
2018-12-19T09:48:44.205Z,14.90
2018-12-19T09:51:11.719Z,22.37
2018-12-19T09:53:39.397Z,17.73
2018-12-19T09:56:06.858Z,19.93
2018-12-19T09:58:34.346Z,21.13
2018-12-19T10:01:01.953Z,16.20
2018-12-19T10:03:29.752Z,17.47
2018-12-19T10:05:57.228Z,17.70
2018-12-19T10:08:24.766Z,19.17
2018-12-19T10:10:52.310Z,18.67
2018-12-19T10:13:19.808Z,14.70
2018-12-19T10:15:47.288Z,18.83
2018-12-19T10:18:15.294Z,17.33
2018-12-19T10:20:42.914Z,20.90
2018-12-19T10:23:10.754Z,19.37
2018-12-19T10:25:38.282Z,19.90
2018-12-19T10:28:05.809Z,19.90
2018-12-19T10:30:38.099Z,14.57
2018-12-19T10:33:05.635Z,18.83
2018-12-19T10:35:33.142Z,18.20
2018-12-19T10:38:00.837Z,17.03
2018-12-19T10:40:28.409Z,16.70
2018-12-19T10:42:55.909Z,16.97
2018-12-19T10:45:23.417Z,18.03
2018-12-19T10:47:50.887Z,16.77
2018-12-19T10:50:18.651Z,18.60
2018-12-19T10:52:46.317Z,16.60
2018-12-19T10:55:13.994Z,18.67
2018-12-19T10:57:41.658Z,18.60
2018-12-19T11:00:17.049Z,16.30
2018-12-19T11:02:44.645Z,18.63
2018-12-19T11:05:12.352Z,17.10
2018-12-19T11:07:44.383Z,16.93
2018-12-19T11:10:11.942Z,23.93
2018-12-19T11:12:39.562Z,16.93
2018-12-19T11:15:09.444Z,18.17
2018-12-19T11:17:37.508Z,17.80
2018-12-19T11:20:06.105Z,18.00
2018-12-19T11:22:33.561Z,18.23
2018-12-19T11:25:01.116Z,17.20
2018-12-19T11:27:28.791Z,19.10
2018-12-19T11:29:56.813Z,17.53
2018-12-19T11:32:24.394Z,18.33
2018-12-19T11:34:51.882Z,17.80
2018-12-19T11:37:19.441Z,15.80
2018-12-19T11:39:46.885Z,18.30
2018-12-19T11:42:14.737Z,20.43
2018-12-19T11:44:42.199Z,21.27
2018-12-19T11:47:09.975Z,16.30
2018-12-19T11:49:37.455Z,19.60
2018-12-19T11:52:05.014Z,23.80
2018-12-19T11:54:32.540Z,17.43
2018-12-19T11:57:00.145Z,18.13
2018-12-19T11:59:27.641Z,17.57
2018-12-19T12:01:55.239Z,19.40
2018-12-19T12:04:22.741Z,18.80
2018-12-19T12:06:52.278Z,17.60
2018-12-19T12:09:20.002Z,17.87
2018-12-19T12:11:47.520Z,20.40
2018-12-19T12:14:15.768Z,17.30
2018-12-19T12:16:43.253Z,17.27
2018-12-19T12:19:10.974Z,21.60
2018-12-19T12:21:38.457Z,19.63
2018-12-19T12:24:06.005Z,19.03
2018-12-19T12:26:33.845Z,21.23
2018-12-19T12:29:01.481Z,23.37
2018-12-19T12:31:28.957Z,20.57
2018-12-19T12:33:56.573Z,18.53
2018-12-19T12:36:24.589Z,18.50
2018-12-19T12:38:52.407Z,19.63
2018-12-19T12:41:19.906Z,19.10
2018-12-19T12:43:48.049Z,23.17
2018-12-19T12:46:16.647Z,17.43
2018-12-19T12:48:44.306Z,22.10
2018-12-19T12:51:11.777Z,18.67
2018-12-19T12:53:41.373Z,20.07
2018-12-19T12:56:08.836Z,23.70
2018-12-19T12:58:36.304Z,20.20
2018-12-19T13:01:03.824Z,20.20
2018-12-19T13:03:31.313Z,24.73
2018-12-19T13:05:58.877Z,21.93
2018-12-19T13:08:26.361Z,22.10
2018-12-19T13:10:54.318Z,21.90
2018-12-19T13:13:21.942Z,21.83
2018-12-19T13:15:49.417Z,23.87
2018-12-19T13:18:17.181Z,23.20
2018-12-19T13:20:44.680Z,23.37
2018-12-19T13:23:16.266Z,24.70
2018-12-19T13:25:43.751Z,22.87
2018-12-19T13:28:11.260Z,25.53
2018-12-19T13:30:38.820Z,24.47
2018-12-19T13:33:06.264Z,25.50
2018-12-19T13:35:33.970Z,26.73
2018-12-19T13:38:05.601Z,25.63
2018-12-19T13:40:33.106Z,24.37
2018-12-19T13:43:00.561Z,26.13
2018-12-19T13:45:28.138Z,24.70
2018-12-19T13:47:55.613Z,25.70
2018-12-19T13:50:23.130Z,24.80
2018-12-19T13:52:50.621Z,23.90
2018-12-19T13:55:18.346Z,25.30
2018-12-19T13:57:45.805Z,25.20
2018-12-19T14:00:13.301Z,25.43
2018-12-19T14:02:41.765Z,26.87
2018-12-19T14:05:09.397Z,24.83
2018-12-19T14:07:37.061Z,25.13
2018-12-19T14:10:05.242Z,24.90
2018-12-19T14:12:33.016Z,24.30
2018-12-19T14:15:00.484Z,28.40
2018-12-19T14:17:27.994Z,26.70
2018-12-19T14:19:55.428Z,27.17
2018-12-19T14:22:23.251Z,26.10
2018-12-19T14:24:50.941Z,26.90
2018-12-19T14:27:18.420Z,24.60
2018-12-19T14:29:45.958Z,25.40
2018-12-19T14:32:13.519Z,24.10
2018-12-19T14:34:41.141Z,26.47
2018-12-19T14:37:09.025Z,27.23
2018-12-19T14:39:36.682Z,26.30
2018-12-19T14:42:04.377Z,25.40
2018-12-19T14:44:31.921Z,26.00
2018-12-19T14:46:59.390Z,24.43
2018-12-19T14:49:26.846Z,24.53
2018-12-19T14:51:54.486Z,25.23
2018-12-19T14:54:22.109Z,23.90
2018-12-19T14:56:49.601Z,24.23
2018-12-19T14:59:17.130Z,24.73
2018-12-19T15:01:45.857Z,24.03
2018-12-19T15:04:13.345Z,22.83
2018-12-19T15:06:41.174Z,20.97
2018-12-19T15:09:08.784Z,23.60
2018-12-19T15:11:37.529Z,22.33
2018-12-19T15:14:05.155Z,22.63
2018-12-19T15:16:32.894Z,21.23
2018-12-19T15:19:00.545Z,22.27
2018-12-19T15:21:28.256Z,24.07
2018-12-19T15:23:56.036Z,22.00
2018-12-19T15:26:23.537Z,22.43
2018-12-19T15:28:51.065Z,23.30
2018-12-19T15:31:18.714Z,27.40
2018-12-19T15:33:46.201Z,23.30
2018-12-19T15:36:14.126Z,21.83
2018-12-19T15:38:41.620Z,22.53
2018-12-19T15:41:09.169Z,20.03
2018-12-19T15:43:36.730Z,21.57
2018-12-19T15:46:11.113Z,25.75
2018-12-19T15:48:38.762Z,22.40
2018-12-19T15:51:06.376Z,23.50
2018-12-19T15:53:33.864Z,22.40
2018-12-19T15:56:01.491Z,23.63
2018-12-19T15:58:29.644Z,21.00
2018-12-19T16:00:57.157Z,22.67
2018-12-19T16:03:24.938Z,25.63
2018-12-19T16:05:54.070Z,22.23
2018-12-19T16:08:21.890Z,20.60
2018-12-19T16:10:51.397Z,21.63
2018-12-19T16:13:19.045Z,23.00
2018-12-19T16:15:46.541Z,24.53
2018-12-19T16:18:14.450Z,21.97
2018-12-19T16:20:41.984Z,21.40
2018-12-19T16:23:09.478Z,23.03
2018-12-19T16:25:37.496Z,22.23
2018-12-19T16:28:05.154Z,22.17
2018-12-19T16:30:32.657Z,23.40
2018-12-19T16:33:00.150Z,22.57
2018-12-19T16:35:27.793Z,23.20
2018-12-19T16:37:55.469Z,20.87
2018-12-19T16:40:22.958Z,22.47
2018-12-19T16:42:50.579Z,25.47
2018-12-19T16:45:18.124Z,24.03
2018-12-19T16:47:45.759Z,24.80
2018-12-19T16:50:13.442Z,23.43
2018-12-19T16:52:40.961Z,25.30
2018-12-19T16:55:10.361Z,25.43
2018-12-19T16:57:37.879Z,25.53
2018-12-19T17:00:07.268Z,24.77
2018-12-19T17:02:36.151Z,25.00
2018-12-19T17:05:04.377Z,24.17
2018-12-19T17:07:32.083Z,22.87
2018-12-19T17:09:59.572Z,24.13
2018-12-19T17:12:27.065Z,27.77
2018-12-19T17:14:54.746Z,24.57
2018-12-19T17:17:22.265Z,24.73
2018-12-19T17:19:49.886Z,29.37
2018-12-19T17:22:17.755Z,22.67
2018-12-19T17:24:49.591Z,23.23
2018-12-19T17:27:22.282Z,23.40
2018-12-19T17:29:54.298Z,23.27
2018-12-19T17:32:26.711Z,23.83
2018-12-19T17:34:58.496Z,24.00
2018-12-19T17:37:29.924Z,24.30
2018-12-19T17:39:59.316Z,21.50
2018-12-19T17:42:31.509Z,20.70
2018-12-19T17:45:02.139Z,22.40
2018-12-19T17:47:30.835Z,22.43
2018-12-19T17:49:58.352Z,23.83
2018-12-19T17:52:26.077Z,23.37
2018-12-19T17:54:53.577Z,26.27
2018-12-19T17:57:21.089Z,23.23
2018-12-19T17:59:48.589Z,21.50
2018-12-19T18:02:16.257Z,22.50
2018-12-19T18:04:44.132Z,21.63
2018-12-19T18:07:11.758Z,24.20
2018-12-19T18:09:39.282Z,23.43
2018-12-19T18:12:09.690Z,21.20
2018-12-19T18:14:37.295Z,20.40
2018-12-19T18:17:05.077Z,21.20
2018-12-19T18:19:32.679Z,22.70
2018-12-19T18:22:00.267Z,21.93
2018-12-19T18:24:27.774Z,20.53
2018-12-19T18:26:55.224Z,20.90
2018-12-19T18:29:22.877Z,20.53
2018-12-19T18:31:50.362Z,23.67
2018-12-19T18:34:18.009Z,20.40
2018-12-19T18:36:45.470Z,18.83
2018-12-19T18:39:12.993Z,23.43
2018-12-19T18:41:40.455Z,21.23
2018-12-19T18:44:08.234Z,20.20
2018-12-19T18:46:35.817Z,19.87
2018-12-19T18:49:03.570Z,23.27
2018-12-19T18:51:31.054Z,21.07
2018-12-19T18:53:58.509Z,20.63
2018-12-19T18:56:25.969Z,19.27
2018-12-19T18:58:53.541Z,20.40
2018-12-19T19:01:21.306Z,21.30
2018-12-19T19:03:50.418Z,23.23
2018-12-19T19:06:18.454Z,22.03
2018-12-19T19:08:46.776Z,19.77
2018-12-19T19:11:14.630Z,19.40
2018-12-19T19:13:42.224Z,19.37
2018-12-19T19:16:09.832Z,21.67
2018-12-19T19:18:37.300Z,23.07
2018-12-19T19:21:04.829Z,22.97
2018-12-19T19:23:32.352Z,24.33
2018-12-19T19:25:59.913Z,22.83
2018-12-19T19:28:27.802Z,18.53
2018-12-19T19:30:55.648Z,20.20
2018-12-19T19:33:23.120Z,18.73
2018-12-19T19:35:50.832Z,20.53
2018-12-19T19:38:19.042Z,19.47
2018-12-19T19:40:46.672Z,18.60
2018-12-19T19:43:15.115Z,20.63
2018-12-19T19:45:43.264Z,19.97
2018-12-19T19:48:11.810Z,21.70
2018-12-19T19:50:39.812Z,19.60
2018-12-19T19:53:08.250Z,20.13
2018-12-19T19:55:37.189Z,19.67
2018-12-19T19:58:05.737Z,20.17
2018-12-19T20:00:35.679Z,18.53
2018-12-19T20:03:04.341Z,21.40
2018-12-19T20:05:32.796Z,22.20
2018-12-19T20:08:01.166Z,22.40
2018-12-19T20:10:29.669Z,20.40
2018-12-19T20:12:57.625Z,21.10
2018-12-19T20:15:25.374Z,21.37
2018-12-19T20:17:53.219Z,20.10
2018-12-19T20:20:20.890Z,20.83
2018-12-19T20:22:49.602Z,20.13
2018-12-19T20:25:17.197Z,22.17
2018-12-19T20:27:44.925Z,19.73
2018-12-19T20:30:12.837Z,21.37
2018-12-19T20:32:40.507Z,21.07
2018-12-19T20:35:08.342Z,18.37
2018-12-19T20:37:36.034Z,18.97
2018-12-19T20:40:04.010Z,19.30
2018-12-19T20:42:31.535Z,21.37
2018-12-19T20:44:59.155Z,19.23
2018-12-19T20:47:26.685Z,21.57
2018-12-19T20:49:54.153Z,19.97
2018-12-19T20:52:21.641Z,21.40
2018-12-19T20:54:49.171Z,20.80
2018-12-19T20:57:16.671Z,20.83
2018-12-19T20:59:44.256Z,18.87
2018-12-19T21:02:12.302Z,20.40
2018-12-19T21:04:39.897Z,18.67
2018-12-19T21:07:07.795Z,18.27
2018-12-19T21:09:35.417Z,20.83
2018-12-19T21:12:03.040Z,24.87
2018-12-19T21:14:30.529Z,18.33
2018-12-19T21:17:03.802Z,22.13
2018-12-19T21:19:31.742Z,20.13
2018-12-19T21:21:59.433Z,20.00
2018-12-19T21:24:26.957Z,20.20
2018-12-19T21:26:54.643Z,19.03
2018-12-19T21:29:22.781Z,20.30
2018-12-19T21:31:50.651Z,24.20
2018-12-19T21:34:18.680Z,18.50
2018-12-19T21:36:46.185Z,21.00
2018-12-19T21:39:13.906Z,19.50
2018-12-19T21:41:41.436Z,18.47
2018-12-19T21:44:09.034Z,18.13
2018-12-19T21:46:37.122Z,22.00
2018-12-19T21:49:04.738Z,17.30
2018-12-19T21:51:32.239Z,19.73
2018-12-19T21:54:01.037Z,19.47
2018-12-19T21:56:28.663Z,17.37
2018-12-19T21:58:56.436Z,20.40
2018-12-19T22:01:24.430Z,19.57
2018-12-19T22:03:52.041Z,18.63
2018-12-19T22:06:19.779Z,17.60
2018-12-19T22:08:47.347Z,16.50
2018-12-19T22:11:15.270Z,24.00
2018-12-19T22:13:42.844Z,21.63
2018-12-19T22:16:15.069Z,18.93
2018-12-19T22:18:46.956Z,21.30
2018-12-19T22:21:15.534Z,18.00
2018-12-19T22:23:43.305Z,19.97
2018-12-19T22:26:10.972Z,21.60
2018-12-19T22:28:38.525Z,18.47
2018-12-19T22:31:06.270Z,19.80
2018-12-19T22:33:33.884Z,17.83
2018-12-19T22:36:01.352Z,22.20
2018-12-19T22:38:28.817Z,19.30
2018-12-19T22:40:56.658Z,19.13
2018-12-19T22:43:24.796Z,17.43
2018-12-19T22:45:52.533Z,16.77
2018-12-19T22:48:20.397Z,20.07
2018-12-19T22:50:48.609Z,19.30
2018-12-19T22:53:29.029Z,21.03
2018-12-19T22:55:57.794Z,17.40
2018-12-19T22:58:25.289Z,17.27
2018-12-19T23:00:58.452Z,18.83
2018-12-19T23:03:33.670Z,18.50
2018-12-19T23:06:01.188Z,17.00
2018-12-19T23:08:29.044Z,17.60
2018-12-19T23:10:56.703Z,15.90
2018-12-19T23:13:24.385Z,15.93
2018-12-19T23:15:53.934Z,18.87
2018-12-19T23:18:27.843Z,20.37
2018-12-19T23:21:01.858Z,18.43
2018-12-19T23:23:36.310Z,16.37
2018-12-19T23:26:06.937Z,18.47
2018-12-19T23:28:36.486Z,16.80
2018-12-19T23:31:05.496Z,17.57
2018-12-19T23:33:33.090Z,15.73
2018-12-19T23:36:00.655Z,15.27
2018-12-19T23:38:28.125Z,17.87
2018-12-19T23:40:55.675Z,16.00
2018-12-19T23:43:23.465Z,15.73
2018-12-19T23:45:51.013Z,20.90
2018-12-19T23:48:18.934Z,20.23
2018-12-19T23:50:46.794Z,18.90
2018-12-19T23:53:17.353Z,17.67
2018-12-19T23:55:44.831Z,17.83
2018-12-19T23:58:12.308Z,17.80
